createdAt,value
2018-05-18T00:00:38.196Z,0.00
2018-05-18T00:01:38.155Z,0.00
2018-05-18T00:02:38.114Z,0.00
2018-05-18T00:03:38.075Z,0.00
2018-05-18T00:04:38.033Z,0.00
2018-05-18T00:05:37.991Z,0.00
2018-05-18T00:06:37.951Z,0.00
2018-05-18T00:07:37.909Z,0.00
2018-05-18T00:08:37.968Z,0.00
2018-05-18T00:09:37.828Z,0.00
2018-05-18T00:10:37.793Z,0.00
2018-05-18T00:11:37.746Z,0.00
2018-05-18T00:12:37.704Z,0.00
2018-05-18T00:13:37.664Z,0.00
2018-05-18T00:14:37.623Z,0.00
2018-05-18T00:15:37.581Z,0.00
2018-05-18T00:16:37.540Z,0.00
2018-05-18T00:17:37.499Z,0.00
2018-05-18T00:18:37.459Z,0.00
2018-05-18T00:19:37.418Z,0.00
2018-05-18T00:20:37.377Z,0.00
2018-05-18T00:21:37.336Z,0.00
2018-05-18T00:22:37.295Z,0.00
2018-05-18T00:23:37.253Z,0.00
2018-05-18T00:24:37.213Z,0.00
2018-05-18T00:25:37.172Z,0.00
2018-05-18T00:26:37.131Z,0.00
2018-05-18T00:27:37.090Z,0.00
2018-05-18T00:28:37.084Z,0.00
2018-05-18T00:29:37.019Z,0.00
2018-05-18T00:30:36.967Z,0.00
2018-05-18T00:31:36.926Z,0.00
2018-05-18T00:32:36.884Z,0.00
2018-05-18T00:33:36.843Z,0.00
2018-05-18T00:34:36.803Z,0.00
2018-05-18T00:35:36.761Z,0.00
2018-05-18T00:36:36.721Z,0.00
2018-05-18T00:37:36.681Z,0.00
2018-05-18T00:38:36.638Z,0.00
2018-05-18T00:39:36.597Z,0.00
2018-05-18T00:40:36.556Z,0.00
2018-05-18T00:41:36.516Z,0.00
2018-05-18T00:42:36.475Z,0.00
2018-05-18T00:43:36.433Z,0.00
2018-05-18T00:44:36.394Z,0.00
2018-05-18T00:45:36.352Z,0.00
2018-05-18T00:46:36.311Z,0.00
2018-05-18T00:47:36.270Z,0.00
2018-05-18T00:48:36.228Z,0.00
2018-05-18T00:49:36.187Z,0.00
2018-05-18T00:50:36.146Z,0.00
2018-05-18T00:51:36.106Z,0.00
2018-05-18T00:52:36.064Z,0.00
2018-05-18T00:53:36.023Z,0.00
2018-05-18T00:54:35.983Z,0.00
2018-05-18T00:55:35.947Z,0.00
2018-05-18T00:56:35.899Z,0.00
2018-05-18T00:57:35.858Z,0.00
2018-05-18T00:58:35.818Z,0.00
2018-05-18T00:59:35.826Z,0.00
2018-05-18T01:00:35.734Z,0.00
2018-05-18T01:01:35.694Z,0.00
2018-05-18T01:02:35.653Z,0.00
2018-05-18T01:03:35.614Z,0.00
2018-05-18T01:04:35.574Z,0.00
2018-05-18T01:05:35.531Z,0.00
2018-05-18T01:06:35.496Z,0.00
2018-05-18T01:07:35.447Z,0.00
2018-05-18T01:08:35.406Z,0.00
2018-05-18T01:09:35.365Z,0.00
2018-05-18T01:10:35.331Z,0.00
2018-05-18T01:11:35.282Z,0.00
2018-05-18T01:12:35.244Z,0.00
2018-05-18T01:13:35.200Z,0.00
2018-05-18T01:14:35.163Z,0.00
2018-05-18T01:15:35.117Z,0.00
2018-05-18T01:16:35.077Z,0.00
2018-05-18T01:17:35.037Z,0.00
2018-05-18T01:18:34.995Z,0.00
2018-05-18T01:19:34.953Z,0.00
2018-05-18T01:20:34.912Z,0.00
2018-05-18T01:21:34.872Z,0.00
2018-05-18T01:22:34.831Z,0.00
2018-05-18T01:23:34.788Z,0.00
2018-05-18T01:24:34.748Z,0.00
2018-05-18T01:25:34.707Z,0.00
2018-05-18T01:26:34.666Z,0.00
2018-05-18T01:27:34.627Z,0.00
2018-05-18T01:28:34.583Z,0.00
2018-05-18T01:29:34.542Z,0.00
2018-05-18T01:30:34.501Z,0.00
2018-05-18T01:31:34.459Z,0.00
2018-05-18T01:32:34.418Z,0.00
2018-05-18T01:33:34.378Z,0.00
2018-05-18T01:34:34.337Z,0.00
2018-05-18T01:35:34.295Z,0.00
2018-05-18T01:36:34.254Z,0.00
2018-05-18T01:37:34.213Z,0.00
2018-05-18T01:38:34.178Z,0.00
2018-05-18T01:39:34.130Z,0.00
2018-05-18T01:40:34.091Z,0.00
2018-05-18T01:41:34.048Z,0.00
2018-05-18T01:42:34.008Z,0.00
2018-05-18T01:43:33.965Z,0.00
2018-05-18T01:44:33.929Z,0.00
2018-05-18T01:45:33.883Z,0.00
2018-05-18T01:46:33.843Z,0.00
2018-05-18T01:47:33.804Z,0.00
2018-05-18T01:48:33.760Z,0.00
2018-05-18T01:49:33.719Z,0.00
2018-05-18T01:50:33.678Z,0.00
2018-05-18T01:51:33.643Z,0.00
2018-05-18T01:52:33.594Z,0.00
2018-05-18T01:53:33.554Z,0.00
2018-05-18T01:54:33.514Z,0.00
2018-05-18T01:55:33.471Z,0.00
2018-05-18T01:56:33.432Z,0.00
2018-05-18T01:57:33.389Z,0.00
2018-05-18T01:58:33.348Z,0.00
2018-05-18T01:59:33.306Z,0.00
2018-05-18T02:00:33.265Z,0.00
2018-05-18T02:01:33.224Z,0.00
2018-05-18T02:02:33.183Z,0.00
2018-05-18T02:03:33.140Z,0.00
2018-05-18T02:04:33.100Z,0.00
2018-05-18T02:05:33.059Z,0.00
2018-05-18T02:06:33.018Z,0.00
2018-05-18T02:07:32.976Z,0.00
2018-05-18T02:08:32.934Z,0.00
2018-05-18T02:09:32.895Z,0.00
2018-05-18T02:10:32.854Z,0.00
2018-05-18T02:11:32.811Z,0.00
2018-05-18T02:12:32.769Z,0.00
2018-05-18T02:13:32.729Z,0.00
2018-05-18T02:14:32.688Z,0.00
2018-05-18T02:15:32.646Z,0.00
2018-05-18T02:16:32.604Z,0.00
2018-05-18T02:17:32.565Z,0.00
2018-05-18T02:18:32.524Z,0.00
2018-05-18T02:19:32.482Z,0.00
2018-05-18T02:20:32.440Z,0.00
2018-05-18T02:21:32.398Z,0.00
2018-05-18T02:22:32.357Z,0.00
2018-05-18T02:23:32.319Z,0.00
2018-05-18T02:24:32.274Z,0.00
2018-05-18T02:25:32.233Z,0.00
2018-05-18T02:26:32.193Z,0.00
2018-05-18T02:27:32.150Z,0.00
2018-05-18T02:28:32.109Z,0.00
2018-05-18T02:29:32.068Z,0.00
2018-05-18T02:30:32.027Z,0.00
2018-05-18T02:31:31.986Z,0.00
2018-05-18T02:32:31.946Z,0.00
2018-05-18T02:33:31.903Z,0.00
2018-05-18T02:34:31.866Z,0.00
2018-05-18T02:35:31.825Z,0.00
2018-05-18T02:36:31.779Z,0.00
2018-05-18T02:37:31.738Z,0.00
2018-05-18T02:38:31.696Z,0.00
2018-05-18T02:39:31.655Z,0.00
2018-05-18T02:40:31.614Z,0.00
2018-05-18T02:41:31.572Z,0.00
2018-05-18T02:42:31.532Z,0.00
2018-05-18T02:43:31.490Z,0.00
2018-05-18T02:44:31.450Z,0.00
2018-05-18T02:45:31.407Z,0.00
2018-05-18T02:46:31.366Z,0.00
2018-05-18T02:47:31.324Z,0.00
2018-05-18T02:48:31.283Z,0.00
2018-05-18T02:49:31.246Z,0.00
2018-05-18T02:50:31.201Z,0.00
2018-05-18T02:51:31.159Z,0.00
2018-05-18T02:52:31.159Z,0.00
2018-05-18T02:53:31.077Z,0.00
2018-05-18T02:54:31.035Z,0.00
2018-05-18T02:55:30.993Z,0.00
2018-05-18T02:56:30.953Z,0.00
2018-05-18T02:57:30.910Z,0.00
2018-05-18T02:58:30.870Z,0.00
2018-05-18T02:59:30.828Z,0.00
2018-05-18T03:00:30.786Z,0.00
2018-05-18T03:01:30.745Z,0.00
2018-05-18T03:02:30.704Z,0.00
2018-05-18T03:03:30.662Z,0.00
2018-05-18T03:04:30.624Z,0.00
2018-05-18T03:05:30.580Z,0.00
2018-05-18T03:06:30.538Z,0.00
2018-05-18T03:07:30.496Z,0.00
2018-05-18T03:08:30.455Z,0.00
2018-05-18T03:09:30.414Z,0.00
2018-05-18T03:10:30.373Z,0.00
2018-05-18T03:11:30.331Z,0.00
2018-05-18T03:12:30.289Z,0.00
2018-05-18T03:13:30.248Z,0.00
2018-05-18T03:14:30.208Z,0.00
2018-05-18T03:15:30.165Z,0.00
2018-05-18T03:16:30.124Z,0.00
2018-05-18T03:17:30.083Z,0.00
2018-05-18T03:18:30.042Z,0.00
2018-05-18T03:19:29.999Z,0.00
2018-05-18T03:20:29.958Z,0.00
2018-05-18T03:21:29.917Z,0.00
2018-05-18T03:22:29.875Z,0.00
2018-05-18T03:23:29.833Z,0.00
2018-05-18T03:24:29.792Z,0.00
2018-05-18T03:25:29.751Z,0.00
2018-05-18T03:26:29.711Z,0.00
2018-05-18T03:27:29.667Z,0.00
2018-05-18T03:28:29.626Z,0.00
2018-05-18T03:29:29.588Z,0.00
2018-05-18T03:30:29.544Z,0.00
2018-05-18T03:31:29.501Z,0.00
2018-05-18T03:32:29.460Z,0.00
2018-05-18T03:33:29.419Z,0.00
2018-05-18T03:34:29.378Z,0.00
2018-05-18T03:35:29.337Z,0.00
2018-05-18T03:36:29.294Z,0.00
2018-05-18T03:37:29.254Z,0.00
2018-05-18T03:38:29.212Z,0.00
2018-05-18T03:39:29.169Z,0.00
2018-05-18T03:40:29.131Z,0.00
2018-05-18T03:41:29.088Z,0.00
2018-05-18T03:42:29.046Z,0.00
2018-05-18T03:43:29.003Z,0.00
2018-05-18T03:44:28.963Z,0.00
2018-05-18T03:45:28.921Z,0.00
2018-05-18T03:46:28.880Z,0.00
2018-05-18T03:47:28.838Z,0.00
2018-05-18T03:48:28.796Z,0.00
2018-05-18T03:49:28.755Z,0.00
2018-05-18T03:50:28.714Z,0.00
2018-05-18T03:51:28.672Z,0.00
2018-05-18T03:52:28.630Z,0.00
2018-05-18T03:53:28.589Z,0.00
2018-05-18T03:54:28.548Z,0.00
2018-05-18T03:55:28.506Z,0.00
2018-05-18T03:56:28.466Z,0.00
2018-05-18T03:57:28.423Z,0.00
2018-05-18T03:58:28.382Z,0.00
2018-05-18T03:59:28.340Z,0.00
2018-05-18T04:00:28.298Z,0.00
2018-05-18T04:01:28.357Z,0.00
2018-05-18T04:02:28.216Z,5.63
2018-05-18T04:03:28.175Z,5.63
2018-05-18T04:04:28.132Z,5.63
2018-05-18T04:05:28.091Z,5.63
2018-05-18T04:06:28.050Z,5.63
2018-05-18T04:07:28.008Z,5.63
2018-05-18T04:08:27.966Z,5.63
2018-05-18T04:09:27.925Z,5.63
2018-05-18T04:10:27.888Z,5.63
2018-05-18T04:11:27.843Z,5.63
2018-05-18T04:12:27.800Z,5.63
2018-05-18T04:13:27.760Z,5.63
2018-05-18T04:14:27.717Z,5.63
2018-05-18T04:15:27.676Z,5.63
2018-05-18T04:16:27.634Z,5.63
2018-05-18T04:17:27.642Z,5.63
2018-05-18T04:18:27.551Z,5.63
2018-05-18T04:19:27.509Z,5.63
2018-05-18T04:20:27.471Z,5.63
2018-05-18T04:21:27.429Z,5.63
2018-05-18T04:22:27.386Z,5.63
2018-05-18T04:23:27.342Z,5.63
2018-05-18T04:24:27.301Z,5.63
2018-05-18T04:25:27.260Z,5.63
2018-05-18T04:26:27.219Z,5.63
2018-05-18T04:27:27.176Z,5.63
2018-05-18T04:28:27.149Z,5.63
2018-05-18T04:29:27.094Z,5.63
2018-05-18T04:30:27.120Z,5.63
2018-05-18T04:31:27.011Z,5.63
2018-05-18T04:32:26.969Z,5.63
2018-05-18T04:33:26.928Z,5.63
2018-05-18T04:34:26.886Z,11.25
2018-05-18T04:35:26.844Z,11.25
2018-05-18T04:36:26.807Z,11.25
2018-05-18T04:37:26.762Z,11.25
2018-05-18T04:38:26.780Z,11.25
2018-05-18T04:39:26.678Z,11.25
2018-05-18T04:40:26.637Z,11.25
2018-05-18T04:41:26.645Z,5.63
2018-05-18T04:42:26.555Z,11.25
2018-05-18T04:43:26.512Z,11.25
2018-05-18T04:44:26.470Z,11.25
2018-05-18T04:45:26.429Z,11.25
2018-05-18T04:46:26.388Z,11.25
2018-05-18T04:47:26.345Z,11.25
2018-05-18T04:48:26.305Z,11.25
2018-05-18T04:49:26.263Z,11.25
2018-05-18T04:50:26.224Z,11.25
2018-05-18T04:51:26.179Z,11.25
2018-05-18T04:52:26.138Z,16.88
2018-05-18T04:53:26.099Z,16.88
2018-05-18T04:54:26.056Z,16.88
2018-05-18T04:55:26.013Z,16.88
2018-05-18T04:56:25.974Z,16.88
2018-05-18T04:57:25.931Z,16.88
2018-05-18T04:58:25.897Z,16.88
2018-05-18T04:59:25.847Z,16.88
2018-05-18T05:00:25.805Z,16.88
2018-05-18T05:01:25.764Z,16.88
2018-05-18T05:02:25.723Z,16.88
2018-05-18T05:03:25.683Z,16.88
2018-05-18T05:04:25.639Z,16.88
2018-05-18T05:05:25.611Z,16.88
2018-05-18T05:06:25.556Z,16.88
2018-05-18T05:07:25.514Z,16.88
2018-05-18T05:08:25.472Z,16.88
2018-05-18T05:09:25.431Z,16.88
2018-05-18T05:10:25.392Z,16.88
2018-05-18T05:11:25.347Z,16.88
2018-05-18T05:12:25.309Z,11.25
2018-05-18T05:13:25.265Z,11.25
2018-05-18T05:14:25.226Z,11.25
2018-05-18T05:15:25.181Z,11.25
2018-05-18T05:16:25.140Z,11.25
2018-05-18T05:17:25.103Z,11.25
2018-05-18T05:18:25.059Z,11.25
2018-05-18T05:19:25.015Z,11.25
2018-05-18T05:20:24.973Z,11.25
2018-05-18T05:21:24.932Z,11.25
2018-05-18T05:22:24.891Z,11.25
2018-05-18T05:23:24.848Z,11.25
2018-05-18T05:24:24.807Z,11.25
2018-05-18T05:25:24.766Z,16.88
2018-05-18T05:26:24.725Z,16.88
2018-05-18T05:27:24.682Z,16.88
2018-05-18T05:28:24.640Z,16.88
2018-05-18T05:29:24.601Z,16.88
2018-05-18T05:30:24.577Z,16.88
2018-05-18T05:31:24.515Z,16.88
2018-05-18T05:32:24.475Z,16.88
2018-05-18T05:33:24.433Z,16.88
2018-05-18T05:34:24.395Z,16.88
2018-05-18T05:35:24.349Z,16.88
2018-05-18T05:36:24.308Z,16.88
2018-05-18T05:37:24.266Z,16.88
2018-05-18T05:38:24.228Z,16.88
2018-05-18T05:39:24.183Z,16.88
2018-05-18T05:40:24.141Z,16.88
2018-05-18T05:41:24.102Z,16.88
2018-05-18T05:42:24.072Z,16.88
2018-05-18T05:43:24.016Z,16.88
2018-05-18T05:44:23.974Z,16.88
2018-05-18T05:45:23.933Z,16.88
2018-05-18T05:46:23.891Z,16.88
2018-05-18T05:47:23.851Z,16.88
2018-05-18T05:48:23.809Z,22.50
2018-05-18T05:49:23.767Z,16.88
2018-05-18T05:50:23.726Z,16.88
2018-05-18T05:51:23.686Z,16.88
2018-05-18T05:52:23.642Z,16.88
2018-05-18T05:53:23.601Z,16.88
2018-05-18T05:54:23.559Z,16.88
2018-05-18T05:55:23.517Z,16.88
2018-05-18T05:56:23.475Z,16.88
2018-05-18T05:57:23.434Z,16.88
2018-05-18T05:58:23.451Z,16.88
2018-05-18T05:59:23.350Z,22.50
2018-05-18T06:00:23.311Z,16.88
2018-05-18T06:01:23.268Z,22.50
2018-05-18T06:02:23.226Z,16.88
2018-05-18T06:03:23.186Z,16.88
2018-05-18T06:04:23.143Z,16.88
2018-05-18T06:05:23.185Z,16.88
2018-05-18T06:06:23.060Z,16.88
2018-05-18T06:07:23.018Z,16.88
2018-05-18T06:08:22.976Z,16.88
2018-05-18T06:09:22.935Z,16.88
2018-05-18T06:10:22.894Z,22.50
2018-05-18T06:11:22.851Z,22.50
2018-05-18T06:12:22.853Z,22.50
2018-05-18T06:13:22.768Z,22.50
2018-05-18T06:14:22.727Z,22.50
2018-05-18T06:15:22.684Z,22.50
2018-05-18T06:16:22.644Z,22.50
2018-05-18T06:17:22.602Z,22.50
2018-05-18T06:18:22.560Z,22.50
2018-05-18T06:19:22.518Z,22.50
2018-05-18T06:20:22.476Z,28.13
2018-05-18T06:21:22.436Z,22.50
2018-05-18T06:22:22.396Z,16.88
2018-05-18T06:23:22.351Z,22.50
2018-05-18T06:24:22.331Z,22.50
2018-05-18T06:25:22.268Z,16.88
2018-05-18T06:26:22.228Z,22.50
2018-05-18T06:27:22.188Z,22.50
2018-05-18T06:28:22.221Z,16.88
2018-05-18T06:29:22.101Z,16.88
2018-05-18T06:30:22.061Z,22.50
2018-05-18T06:31:22.019Z,22.50
2018-05-18T06:32:21.977Z,22.50
2018-05-18T06:33:21.936Z,22.50
2018-05-18T06:34:21.895Z,22.50
2018-05-18T06:35:21.852Z,22.50
2018-05-18T06:36:21.811Z,16.88
2018-05-18T06:37:21.769Z,16.88
2018-05-18T06:38:21.732Z,16.88
2018-05-18T06:39:21.685Z,16.88
2018-05-18T06:40:21.652Z,16.88
2018-05-18T06:41:21.700Z,22.50
2018-05-18T06:42:21.561Z,22.50
2018-05-18T06:43:21.519Z,16.88
2018-05-18T06:44:21.477Z,22.50
2018-05-18T06:45:21.440Z,22.50
2018-05-18T06:46:21.393Z,22.50
2018-05-18T06:47:21.352Z,22.50
2018-05-18T06:48:21.313Z,28.13
2018-05-18T06:49:21.269Z,28.13
2018-05-18T06:50:21.228Z,28.13
2018-05-18T06:51:21.184Z,22.50
2018-05-18T06:52:21.142Z,22.50
2018-05-18T06:53:21.101Z,22.50
2018-05-18T06:54:21.063Z,22.50
2018-05-18T06:55:21.018Z,22.50
2018-05-18T06:56:20.976Z,22.50
2018-05-18T06:57:20.934Z,22.50
2018-05-18T06:58:20.893Z,22.50
2018-05-18T06:59:20.850Z,28.13
2018-05-18T07:00:20.809Z,22.50
2018-05-18T07:01:20.768Z,28.13
2018-05-18T07:02:20.731Z,33.75
2018-05-18T07:03:20.684Z,28.13
2018-05-18T07:04:20.641Z,28.13
2018-05-18T07:05:20.606Z,33.75
2018-05-18T07:06:20.561Z,33.75
2018-05-18T07:07:20.518Z,33.75
2018-05-18T07:08:20.475Z,33.75
2018-05-18T07:09:20.435Z,33.75
2018-05-18T07:10:20.393Z,33.75
2018-05-18T07:11:20.351Z,33.75
2018-05-18T07:12:20.311Z,33.75
2018-05-18T07:13:20.268Z,28.13
2018-05-18T07:14:20.232Z,33.75
2018-05-18T07:15:20.186Z,39.38
2018-05-18T07:16:20.142Z,33.75
2018-05-18T07:17:20.101Z,33.75
2018-05-18T07:18:20.060Z,33.75
2018-05-18T07:19:20.017Z,33.75
2018-05-18T07:20:19.977Z,33.75
2018-05-18T07:21:19.935Z,33.75
2018-05-18T07:22:19.893Z,33.75
2018-05-18T07:23:19.852Z,33.75
2018-05-18T07:24:19.810Z,39.38
2018-05-18T07:25:19.768Z,39.38
2018-05-18T07:26:19.727Z,45.00
2018-05-18T07:27:19.685Z,45.00
2018-05-18T07:28:19.649Z,50.63
2018-05-18T07:29:19.603Z,45.00
2018-05-18T07:30:19.561Z,45.00
2018-05-18T07:31:19.519Z,50.63
2018-05-18T07:32:19.476Z,45.00
2018-05-18T07:33:19.438Z,45.00
2018-05-18T07:34:19.395Z,50.63
2018-05-18T07:35:19.352Z,50.63
2018-05-18T07:36:19.414Z,56.25
2018-05-18T07:37:19.269Z,61.88
2018-05-18T07:38:19.228Z,73.13
2018-05-18T07:39:19.185Z,78.75
2018-05-18T07:40:19.144Z,73.13
2018-05-18T07:41:19.103Z,67.50
2018-05-18T07:42:19.161Z,73.13
2018-05-18T07:43:19.022Z,78.75
2018-05-18T07:44:18.978Z,73.13
2018-05-18T07:45:18.936Z,67.50
2018-05-18T07:46:18.895Z,67.50
2018-05-18T07:47:18.853Z,61.88
2018-05-18T07:48:18.812Z,56.25
2018-05-18T07:49:18.779Z,56.25
2018-05-18T07:50:18.729Z,67.50
2018-05-18T07:51:18.687Z,73.13
2018-05-18T07:52:18.645Z,67.50
2018-05-18T07:53:18.611Z,78.75
2018-05-18T07:54:18.563Z,73.13
2018-05-18T07:55:18.521Z,73.13
2018-05-18T07:56:18.480Z,73.13
2018-05-18T07:57:18.443Z,61.88
2018-05-18T07:58:18.397Z,67.50
2018-05-18T07:59:18.355Z,84.38
2018-05-18T08:00:18.314Z,78.75
2018-05-18T08:01:18.273Z,78.75
2018-05-18T08:02:18.231Z,84.38
2018-05-18T08:03:18.194Z,5.63
2018-05-18T08:04:18.148Z,11.25
2018-05-18T08:05:18.107Z,28.13
2018-05-18T08:06:18.065Z,11.25
2018-05-18T08:07:18.022Z,11.25
2018-05-18T08:08:18.032Z,11.25
2018-05-18T08:09:17.939Z,11.25
2018-05-18T08:10:17.899Z,11.25
2018-05-18T08:11:17.858Z,11.25
2018-05-18T08:12:17.816Z,11.25
2018-05-18T08:13:17.775Z,11.25
2018-05-18T08:14:17.733Z,5.63
2018-05-18T08:15:17.690Z,11.25
2018-05-18T08:16:17.658Z,11.25
2018-05-18T08:17:17.610Z,11.25
2018-05-18T08:18:17.568Z,16.88
2018-05-18T08:19:17.526Z,16.88
2018-05-18T08:20:17.485Z,16.88
2018-05-18T08:21:17.443Z,22.50
2018-05-18T08:22:17.402Z,16.88
2018-05-18T08:23:17.364Z,16.88
2018-05-18T08:24:17.319Z,11.25
2018-05-18T08:25:17.278Z,22.50
2018-05-18T08:26:17.236Z,11.25
2018-05-18T08:27:17.194Z,33.75
2018-05-18T08:28:17.155Z,11.25
2018-05-18T08:29:17.115Z,11.25
2018-05-18T08:30:17.220Z,11.25
2018-05-18T08:31:17.030Z,11.25
2018-05-18T08:32:17.042Z,11.25
2018-05-18T08:33:16.948Z,11.25
2018-05-18T08:34:16.908Z,11.25
2018-05-18T08:35:16.864Z,5.63
2018-05-18T08:36:16.824Z,11.25
2018-05-18T08:37:16.781Z,16.88
2018-05-18T08:38:16.741Z,11.25
2018-05-18T08:39:16.700Z,11.25
2018-05-18T08:40:16.658Z,11.25
2018-05-18T08:41:16.618Z,11.25
2018-05-18T08:42:16.579Z,11.25
2018-05-18T08:43:16.535Z,5.63
2018-05-18T08:44:16.578Z,5.63
2018-05-18T08:45:16.454Z,5.63
2018-05-18T08:46:16.420Z,5.63
2018-05-18T08:47:16.371Z,5.63
2018-05-18T08:48:16.330Z,11.25
2018-05-18T08:49:16.288Z,5.63
2018-05-18T08:50:16.266Z,5.63
2018-05-18T08:51:16.207Z,5.63
2018-05-18T08:52:16.164Z,5.63
2018-05-18T08:53:16.124Z,5.63
2018-05-18T08:54:16.083Z,5.63
2018-05-18T08:55:16.092Z,5.63
2018-05-18T08:56:15.999Z,5.63
2018-05-18T08:57:15.960Z,5.63
2018-05-18T08:58:15.918Z,5.63
2018-05-18T08:59:15.876Z,5.63
2018-05-18T09:00:15.835Z,5.63
2018-05-18T09:01:15.794Z,5.63
2018-05-18T09:02:15.753Z,5.63
2018-05-18T09:03:15.711Z,5.63
2018-05-18T09:04:15.670Z,5.63
2018-05-18T09:05:15.629Z,5.63
2018-05-18T09:06:15.588Z,5.63
2018-05-18T09:07:15.550Z,5.63
2018-05-18T09:08:15.655Z,5.63
2018-05-18T09:09:15.463Z,5.63
2018-05-18T09:10:15.422Z,5.63
2018-05-18T09:11:15.381Z,5.63
2018-05-18T09:12:15.340Z,5.63
2018-05-18T09:13:15.302Z,5.63
2018-05-18T09:14:15.257Z,5.63
2018-05-18T09:15:15.264Z,5.63
2018-05-18T09:16:15.181Z,5.63
2018-05-18T09:17:15.137Z,5.63
2018-05-18T09:18:15.093Z,5.63
2018-05-18T09:19:15.050Z,5.63
2018-05-18T09:20:15.009Z,5.63
2018-05-18T09:21:14.969Z,5.63
2018-05-18T09:22:14.927Z,5.63
2018-05-18T09:23:14.886Z,5.63
2018-05-18T09:24:14.848Z,5.63
2018-05-18T09:25:14.814Z,5.63
2018-05-18T09:26:14.761Z,5.63
2018-05-18T09:27:14.724Z,5.63
2018-05-18T09:28:14.682Z,5.63
2018-05-18T09:29:14.638Z,5.63
2018-05-18T09:30:14.599Z,5.63
2018-05-18T09:31:14.561Z,5.63
2018-05-18T09:32:14.513Z,5.63
2018-05-18T09:33:14.476Z,5.63
2018-05-18T09:34:14.492Z,5.63
2018-05-18T09:35:14.390Z,11.25
2018-05-18T09:36:14.349Z,5.63
2018-05-18T09:37:14.308Z,5.63
2018-05-18T09:38:14.267Z,5.63
2018-05-18T09:39:14.228Z,5.63
2018-05-18T09:40:14.185Z,5.63
2018-05-18T09:41:14.143Z,5.63
2018-05-18T09:42:14.101Z,5.63
2018-05-18T09:43:14.063Z,5.63
2018-05-18T09:44:14.019Z,5.63
2018-05-18T09:45:14.001Z,5.63
2018-05-18T09:46:13.937Z,5.63
2018-05-18T09:47:13.894Z,5.63
2018-05-18T09:48:13.853Z,5.63
2018-05-18T09:49:13.811Z,5.63
2018-05-18T09:50:13.771Z,5.63
2018-05-18T09:51:13.729Z,5.63
2018-05-18T09:52:13.689Z,5.63
2018-05-18T09:53:13.760Z,5.63
2018-05-18T09:54:13.640Z,5.63
2018-05-18T09:55:13.817Z,5.63
2018-05-18T09:56:13.523Z,5.63
2018-05-18T09:57:13.484Z,5.63
2018-05-18T09:58:13.441Z,5.63
2018-05-18T09:59:13.399Z,5.63
2018-05-18T10:00:13.357Z,5.63
2018-05-18T10:01:13.317Z,5.63
2018-05-18T10:02:13.275Z,5.63
2018-05-18T10:03:13.233Z,5.63
2018-05-18T10:04:13.193Z,5.63
2018-05-18T10:05:13.151Z,5.63
2018-05-18T10:06:13.112Z,5.63
2018-05-18T10:07:13.067Z,5.63
2018-05-18T10:08:13.027Z,5.63
2018-05-18T10:09:12.985Z,5.63
2018-05-18T10:10:12.944Z,5.63
2018-05-18T10:11:12.903Z,5.63
2018-05-18T10:12:12.862Z,5.63
2018-05-18T10:13:12.820Z,5.63
2018-05-18T10:14:12.780Z,5.63
2018-05-18T10:15:12.738Z,5.63
2018-05-18T10:16:12.697Z,5.63
2018-05-18T10:17:12.655Z,5.63
2018-05-18T10:18:12.614Z,5.63
2018-05-18T10:19:12.575Z,5.63
2018-05-18T10:20:12.533Z,5.63
2018-05-18T10:21:12.490Z,5.63
2018-05-18T10:22:12.452Z,5.63
2018-05-18T10:23:12.411Z,5.63
2018-05-18T10:24:12.366Z,5.63
2018-05-18T10:25:12.325Z,5.63
2018-05-18T10:26:12.284Z,5.63
2018-05-18T10:27:12.242Z,5.63
2018-05-18T10:28:12.210Z,5.63
2018-05-18T10:29:12.163Z,5.63
2018-05-18T10:30:12.119Z,5.63
2018-05-18T10:31:12.077Z,5.63
2018-05-18T10:32:12.036Z,5.63
2018-05-18T10:33:11.995Z,5.63
2018-05-18T10:34:11.954Z,5.63
2018-05-18T10:35:11.916Z,5.63
2018-05-18T10:36:11.871Z,5.63
2018-05-18T10:37:11.830Z,5.63
2018-05-18T10:38:11.792Z,5.63
2018-05-18T10:39:11.748Z,5.63
2018-05-18T10:40:11.706Z,5.63
2018-05-18T10:41:11.715Z,5.63
2018-05-18T10:42:11.726Z,5.63
2018-05-18T10:43:11.582Z,5.63
2018-05-18T10:44:11.541Z,5.63
2018-05-18T10:45:11.502Z,5.63
2018-05-18T10:46:11.459Z,5.63
2018-05-18T10:47:11.421Z,5.63
2018-05-18T10:48:11.376Z,5.63
2018-05-18T10:49:11.335Z,5.63
2018-05-18T10:50:11.296Z,5.63
2018-05-18T10:51:11.252Z,5.63
2018-05-18T10:52:11.211Z,5.63
2018-05-18T10:53:11.309Z,5.63
2018-05-18T10:54:11.130Z,5.63
2018-05-18T10:55:11.090Z,5.63
2018-05-18T10:56:11.047Z,5.63
2018-05-18T10:57:11.206Z,5.63
2018-05-18T10:58:10.964Z,5.63
2018-05-18T10:59:10.923Z,5.63
2018-05-18T11:00:10.881Z,5.63
2018-05-18T11:01:10.841Z,5.63
2018-05-18T11:02:10.849Z,5.63
2018-05-18T11:03:10.756Z,5.63
2018-05-18T11:04:10.717Z,5.63
2018-05-18T11:05:10.702Z,5.63
2018-05-18T11:06:10.687Z,5.63
2018-05-18T11:07:10.592Z,5.63
2018-05-18T11:08:10.557Z,5.63
2018-05-18T11:09:10.511Z,5.63
2018-05-18T11:10:10.469Z,5.63
2018-05-18T11:11:10.427Z,5.63
2018-05-18T11:12:10.386Z,5.63
2018-05-18T11:13:10.346Z,5.63
2018-05-18T11:14:10.368Z,5.63
2018-05-18T11:15:10.264Z,5.63
2018-05-18T11:16:10.222Z,5.63
2018-05-18T11:17:10.180Z,5.63
2018-05-18T11:18:10.139Z,5.63
2018-05-18T11:19:10.101Z,5.63
2018-05-18T11:20:10.267Z,5.63
2018-05-18T11:21:10.015Z,5.63
2018-05-18T11:22:09.974Z,5.63
2018-05-18T11:23:09.937Z,5.63
2018-05-18T11:24:09.891Z,5.63
2018-05-18T11:25:09.850Z,5.63
2018-05-18T11:26:09.809Z,5.63
2018-05-18T11:27:09.772Z,5.63
2018-05-18T11:28:09.725Z,5.63
2018-05-18T11:29:09.686Z,5.63
2018-05-18T11:30:09.644Z,5.63
2018-05-18T11:31:09.603Z,5.63
2018-05-18T11:32:09.561Z,5.63
2018-05-18T11:33:09.523Z,5.63
2018-05-18T11:34:09.479Z,5.63
2018-05-18T11:35:09.437Z,5.63
2018-05-18T11:36:09.395Z,5.63
2018-05-18T11:37:09.355Z,5.63
2018-05-18T11:38:09.314Z,5.63
2018-05-18T11:39:09.312Z,5.63
2018-05-18T11:40:09.231Z,5.63
2018-05-18T11:41:09.190Z,5.63
2018-05-18T11:42:09.149Z,5.63
2018-05-18T11:43:09.107Z,5.63
2018-05-18T11:44:09.066Z,5.63
2018-05-18T11:45:09.025Z,5.63
2018-05-18T11:46:08.983Z,5.63
2018-05-18T11:47:08.942Z,5.63
2018-05-18T11:48:08.947Z,5.63
2018-05-18T11:49:08.866Z,5.63
2018-05-18T11:50:08.869Z,5.63
2018-05-18T11:51:08.777Z,5.63
2018-05-18T11:52:08.736Z,5.63
2018-05-18T11:53:08.693Z,5.63
2018-05-18T11:54:08.658Z,5.63
2018-05-18T11:55:08.612Z,5.63
2018-05-18T11:56:08.571Z,5.63
2018-05-18T11:57:08.530Z,5.63
2018-05-18T11:58:08.488Z,0.00
2018-05-18T11:59:08.445Z,0.00
2018-05-18T12:00:08.405Z,0.00
2018-05-18T12:01:08.364Z,5.63
2018-05-18T12:02:08.323Z,0.00
2018-05-18T12:03:08.284Z,0.00
2018-05-18T12:04:08.240Z,5.63
2018-05-18T12:05:08.199Z,0.00
2018-05-18T12:06:08.158Z,0.00
2018-05-18T12:07:08.116Z,0.00
2018-05-18T12:08:08.187Z,0.00
2018-05-18T12:09:08.035Z,0.00
2018-05-18T12:10:07.993Z,0.00
2018-05-18T12:11:08.002Z,0.00
2018-05-18T12:12:07.914Z,0.00
2018-05-18T12:13:07.872Z,0.00
2018-05-18T12:14:07.846Z,0.00
2018-05-18T12:15:07.786Z,0.00
2018-05-18T12:16:07.746Z,5.63
2018-05-18T12:17:07.705Z,0.00
2018-05-18T12:18:07.664Z,0.00
2018-05-18T12:19:07.621Z,0.00
2018-05-18T12:20:07.581Z,0.00
2018-05-18T12:21:07.539Z,0.00
2018-05-18T12:22:07.549Z,0.00
2018-05-18T12:23:07.457Z,0.00
2018-05-18T12:24:07.419Z,0.00
2018-05-18T12:25:07.377Z,0.00
2018-05-18T12:26:07.432Z,0.00
2018-05-18T12:27:07.293Z,0.00
2018-05-18T12:28:07.253Z,5.63
2018-05-18T12:29:07.213Z,5.63
2018-05-18T12:30:07.170Z,5.63
2018-05-18T12:31:07.127Z,5.63
2018-05-18T12:32:07.086Z,5.63
2018-05-18T12:33:07.045Z,5.63
2018-05-18T12:34:07.004Z,5.63
2018-05-18T12:35:06.962Z,5.63
2018-05-18T12:36:06.921Z,11.25
2018-05-18T12:37:06.880Z,5.63
2018-05-18T12:38:06.845Z,5.63
2018-05-18T12:39:06.797Z,11.25
2018-05-18T12:40:06.758Z,5.63
2018-05-18T12:41:06.716Z,5.63
2018-05-18T12:42:06.674Z,5.63
2018-05-18T12:43:06.720Z,5.63
2018-05-18T12:44:06.592Z,5.63
2018-05-18T12:45:06.550Z,5.63
2018-05-18T12:46:06.512Z,5.63
2018-05-18T12:47:06.468Z,5.63
2018-05-18T12:48:06.427Z,5.63
2018-05-18T12:49:06.385Z,5.63
2018-05-18T12:50:06.344Z,5.63
2018-05-18T12:51:06.303Z,5.63
2018-05-18T12:52:06.262Z,5.63
2018-05-18T12:53:06.221Z,5.63
2018-05-18T12:54:06.276Z,5.63
2018-05-18T12:55:06.138Z,5.63
2018-05-18T12:56:06.096Z,5.63
2018-05-18T12:57:06.055Z,5.63
2018-05-18T12:58:06.014Z,5.63
2018-05-18T12:59:05.979Z,5.63
2018-05-18T13:00:05.936Z,5.63
2018-05-18T13:01:05.891Z,5.63
2018-05-18T13:02:05.850Z,5.63
2018-05-18T13:03:05.809Z,5.63
2018-05-18T13:04:05.768Z,5.63
2018-05-18T13:05:05.726Z,5.63
2018-05-18T13:06:05.686Z,5.63
2018-05-18T13:07:05.644Z,5.63
2018-05-18T13:08:05.631Z,5.63
2018-05-18T13:09:05.568Z,5.63
2018-05-18T13:10:05.570Z,5.63